createdAt,value
2019-06-07T00:00:02.859Z,18.70
2019-06-07T00:02:55.183Z,18.60
2019-06-07T00:05:26.771Z,18.50
2019-06-07T00:08:07.605Z,18.30
2019-06-07T00:10:36.634Z,18.30
2019-06-07T00:13:06.879Z,18.30
2019-06-07T00:15:38.887Z,18.30
2019-06-07T00:18:13.556Z,18.30
2019-06-07T00:20:44.499Z,18.20
2019-06-07T00:23:22.118Z,18.30
2019-06-07T00:25:49.158Z,18.30
2019-06-07T00:28:24.374Z,18.30
2019-06-07T00:30:56.433Z,18.10
2019-06-07T00:33:27.936Z,18.10
2019-06-07T00:35:59.579Z,18.00
2019-06-07T00:38:30.944Z,18.10
2019-06-07T00:41:04.088Z,18.00
2019-06-07T00:43:38.107Z,17.90
2019-06-07T00:46:14.091Z,18.10
2019-06-07T00:48:42.663Z,18.10
2019-06-07T00:51:17.269Z,17.90
2019-06-07T00:53:48.085Z,17.90
2019-06-07T00:56:21.756Z,17.90
2019-06-07T00:59:10.439Z,18.00
2019-06-07T01:01:32.433Z,18.00
2019-06-07T01:04:03.931Z,17.90
2019-06-07T01:06:35.893Z,17.80
2019-06-07T01:09:09.099Z,17.80
2019-06-07T01:11:54.144Z,17.80
2019-06-07T01:14:28.376Z,17.70
2019-06-07T01:17:20.155Z,17.60
2019-06-07T01:19:31.817Z,17.50
2019-06-07T01:22:03.348Z,17.60
2019-06-07T01:24:34.847Z,17.50
2019-06-07T01:27:06.511Z,17.60
2019-06-07T01:29:38.318Z,17.70
2019-06-07T01:32:09.866Z,17.60
2019-06-07T01:34:41.364Z,17.50
2019-06-07T01:37:12.808Z,17.40
2019-06-07T01:39:44.515Z,17.30
2019-06-07T01:42:18.067Z,17.30
2019-06-07T01:44:49.163Z,17.30
2019-06-07T01:47:24.550Z,17.30
2019-06-07T01:49:53.603Z,17.30
2019-06-07T01:52:26.643Z,17.20
2019-06-07T01:54:59.140Z,17.20
2019-06-07T01:57:44.713Z,17.20
2019-06-07T02:00:03.977Z,17.20
2019-06-07T02:02:35.582Z,17.10
2019-06-07T02:05:08.062Z,17.20
2019-06-07T02:07:40.110Z,17.10
2019-06-07T02:10:12.024Z,17.00
2019-06-07T02:12:43.853Z,16.90
2019-06-07T02:15:15.557Z,16.90
2019-06-07T02:17:47.459Z,16.80
2019-06-07T02:20:20.358Z,16.80
2019-06-07T02:22:52.069Z,16.80
2019-06-07T02:25:48.431Z,16.70
2019-06-07T02:28:25.793Z,16.70
2019-06-07T02:30:47.246Z,16.70
2019-06-07T02:33:02.977Z,16.70
2019-06-07T02:35:40.321Z,16.60
2019-06-07T02:38:07.635Z,16.70
2019-06-07T02:40:39.096Z,16.80
2019-06-07T02:43:10.544Z,16.80
2019-06-07T02:45:43.706Z,16.80
2019-06-07T02:48:15.421Z,16.90
2019-06-07T02:50:46.995Z,16.90
2019-06-07T02:53:18.498Z,17.00
2019-06-07T02:56:34.158Z,17.10
2019-06-07T02:58:26.130Z,17.10
2019-06-07T03:01:07.665Z,17.10
2019-06-07T03:03:31.093Z,17.00
2019-06-07T03:06:03.579Z,17.00
2019-06-07T03:08:36.759Z,17.00
2019-06-07T03:11:08.647Z,17.00
2019-06-07T03:13:46.256Z,16.90
2019-06-07T03:16:37.032Z,16.90
2019-06-07T03:19:11.931Z,16.90
2019-06-07T03:21:44.774Z,17.00
2019-06-07T03:24:16.159Z,17.00
2019-06-07T03:27:31.821Z,17.10
2019-06-07T03:29:20.927Z,17.10
2019-06-07T03:31:52.646Z,17.00
2019-06-07T03:34:24.085Z,17.00
2019-06-07T03:36:55.621Z,17.10
2019-06-07T03:39:28.398Z,17.10
2019-06-07T03:42:06.177Z,17.20
2019-06-07T03:44:37.783Z,17.20
2019-06-07T03:47:06.918Z,17.30
2019-06-07T03:49:41.805Z,17.40
2019-06-07T03:52:11.609Z,17.40
2019-06-07T03:54:43.081Z,17.50
2019-06-07T03:57:14.532Z,17.50
2019-06-07T03:59:46.072Z,17.70
2019-06-07T04:02:18.535Z,17.80
2019-06-07T04:04:49.920Z,17.90
2019-06-07T04:07:21.390Z,18.10
2019-06-07T04:09:52.849Z,18.20
2019-06-07T04:12:24.336Z,18.40
2019-06-07T04:14:55.784Z,18.40
2019-06-07T04:17:30.705Z,18.50
2019-06-07T04:20:03.893Z,18.60
2019-06-07T04:22:38.851Z,18.70
2019-06-07T04:25:10.529Z,18.80
2019-06-07T04:27:42.215Z,18.90
2019-06-07T04:30:13.687Z,19.00
2019-06-07T04:32:45.271Z,19.10
2019-06-07T04:35:16.802Z,19.20
2019-06-07T04:37:48.381Z,19.30
2019-06-07T04:40:19.907Z,19.50
2019-06-07T04:42:51.816Z,19.70
2019-06-07T04:45:33.533Z,19.80
2019-06-07T04:47:58.013Z,20.00
2019-06-07T04:50:33.835Z,20.10
2019-06-07T04:53:04.223Z,20.20
2019-06-07T04:55:38.628Z,20.40
2019-06-07T04:58:08.787Z,20.50
2019-06-07T05:00:55.644Z,20.70
2019-06-07T05:03:13.475Z,20.80
2019-06-07T05:05:45.090Z,20.80
2019-06-07T05:08:27.399Z,21.00
2019-06-07T05:10:49.780Z,21.10
2019-06-07T05:13:21.154Z,21.20
2019-06-07T05:15:53.880Z,21.40
2019-06-07T05:18:26.526Z,21.60
2019-06-07T05:20:59.168Z,21.80
2019-06-07T05:24:06.400Z,22.00
2019-06-07T05:26:05.102Z,22.10
2019-06-07T05:28:42.291Z,22.40
2019-06-07T05:31:12.085Z,23.60
2019-06-07T05:33:44.174Z,24.10
2019-06-07T05:36:15.625Z,24.80
2019-06-07T05:38:47.681Z,25.10
2019-06-07T05:41:19.229Z,25.30
2019-06-07T05:44:11.225Z,25.00
2019-06-07T05:46:24.111Z,25.30
2019-06-07T05:48:55.629Z,25.70
2019-06-07T05:51:27.184Z,25.40
2019-06-07T05:53:58.786Z,25.40
2019-06-07T05:56:30.412Z,25.80
2019-06-07T05:59:01.880Z,25.90
2019-06-07T06:01:59.778Z,26.30
2019-06-07T06:04:06.746Z,26.50
2019-06-07T06:06:43.174Z,26.60
2019-06-07T06:09:14.116Z,26.70
2019-06-07T06:11:59.733Z,26.30
2019-06-07T06:14:19.007Z,25.90
2019-06-07T06:16:50.630Z,25.80
2019-06-07T06:19:22.157Z,26.10
2019-06-07T06:21:53.703Z,26.10
2019-06-07T06:24:25.580Z,26.00
2019-06-07T06:27:18.638Z,26.40
2019-06-07T06:29:30.967Z,26.10
2019-06-07T06:32:40.487Z,26.00
2019-06-07T06:34:39.409Z,25.90
2019-06-07T06:37:09.846Z,26.40
2019-06-07T06:39:42.156Z,26.50
2019-06-07T06:42:14.408Z,26.50
2019-06-07T06:44:47.127Z,26.60
2019-06-07T06:47:18.967Z,26.40
2019-06-07T06:49:54.299Z,26.60
2019-06-07T06:52:23.658Z,27.10
2019-06-07T06:55:00.595Z,27.20
2019-06-07T06:57:28.265Z,27.30
2019-06-07T06:59:59.639Z,27.10
2019-06-07T07:02:31.307Z,27.40
2019-06-07T07:05:03.027Z,27.70
2019-06-07T07:07:34.697Z,27.90
2019-06-07T07:10:06.972Z,27.80
2019-06-07T07:12:51.201Z,28.00
2019-06-07T07:15:22.008Z,28.40
2019-06-07T07:18:07.972Z,28.20
2019-06-07T07:20:27.605Z,28.00
2019-06-07T07:22:59.189Z,28.30
2019-06-07T07:25:30.761Z,28.30
2019-06-07T07:28:03.500Z,28.10
2019-06-07T07:30:52.566Z,28.20
2019-06-07T07:33:23.016Z,28.20
2019-06-07T07:36:15.893Z,28.60
2019-06-07T07:38:27.684Z,27.70
2019-06-07T07:41:14.007Z,27.80
2019-06-07T07:43:32.393Z,28.10
2019-06-07T07:46:27.421Z,28.20
2019-06-07T07:48:37.183Z,28.50
2019-06-07T07:51:08.574Z,28.80
2019-06-07T07:53:52.079Z,29.00
2019-06-07T07:56:13.180Z,29.30
2019-06-07T07:58:48.733Z,29.40
2019-06-07T08:01:18.621Z,29.00
2019-06-07T08:03:50.672Z,29.20
2019-06-07T08:06:41.584Z,29.20
2019-06-07T08:09:14.308Z,29.20
2019-06-07T08:11:47.368Z,29.10
2019-06-07T08:14:19.066Z,29.40
2019-06-07T08:16:51.892Z,29.90
2019-06-07T08:19:23.997Z,30.00
2019-06-07T08:21:55.700Z,30.20
2019-06-07T08:24:27.380Z,30.10
2019-06-07T08:27:24.800Z,30.10
2019-06-07T08:29:44.992Z,30.10
2019-06-07T08:32:09.030Z,30.30
2019-06-07T08:34:46.318Z,30.50
2019-06-07T08:37:18.227Z,30.60
2019-06-07T08:39:50.361Z,30.50
2019-06-07T08:42:36.483Z,30.50
2019-06-07T08:45:00.935Z,30.60
2019-06-07T08:47:29.073Z,30.70
2019-06-07T08:50:07.151Z,30.80
2019-06-07T08:52:34.307Z,30.90
2019-06-07T08:55:06.195Z,31.00
2019-06-07T08:57:42.115Z,31.10
2019-06-07T09:00:45.104Z,31.20
2019-06-07T09:03:05.199Z,31.40
2019-06-07T09:05:32.423Z,31.50
2019-06-07T09:08:23.490Z,31.40
2019-06-07T09:10:37.184Z,31.40
2019-06-07T09:13:11.788Z,31.40
2019-06-07T09:15:41.812Z,31.20
2019-06-07T09:20:48.686Z,31.30
2019-06-07T09:23:20.370Z,31.50
2019-06-07T09:26:02.568Z,31.70
2019-06-07T09:28:25.464Z,32.00
2019-06-07T09:30:59.572Z,31.90
2019-06-07T09:33:30.383Z,32.10
2019-06-07T09:36:07.948Z,32.20
2019-06-07T09:38:35.035Z,32.00
2019-06-07T09:41:07.629Z,31.80
2019-06-07T09:44:01.326Z,32.10
2019-06-07T09:46:16.093Z,32.00
2019-06-07T09:49:13.921Z,32.20
2019-06-07T09:51:20.748Z,32.40
2019-06-07T09:53:52.367Z,32.40
2019-06-07T09:56:24.005Z,32.40
2019-06-07T09:58:55.403Z,32.60
2019-06-07T10:01:27.386Z,32.40
2019-06-07T10:04:07.381Z,32.60
2019-06-07T10:06:32.550Z,32.60
2019-06-07T10:11:37.641Z,32.60
2019-06-07T10:14:09.039Z,32.80
2019-06-07T10:16:46.646Z,32.70
2019-06-07T10:19:16.333Z,32.70
2019-06-07T10:21:48.271Z,32.50
2019-06-07T10:24:19.850Z,32.80
2019-06-07T10:26:51.749Z,33.20
2019-06-07T10:29:24.304Z,33.10
2019-06-07T10:31:55.928Z,33.10
2019-06-07T10:34:27.491Z,33.10
2019-06-07T10:37:03.337Z,33.10
2019-06-07T10:39:47.567Z,33.40
2019-06-07T10:42:07.905Z,33.30
2019-06-07T10:44:39.978Z,33.20
2019-06-07T10:47:12.649Z,33.20
2019-06-07T10:49:44.039Z,33.30
2019-06-07T10:52:15.738Z,33.40
2019-06-07T10:54:47.265Z,33.60
2019-06-07T10:57:18.723Z,33.40
2019-06-07T10:59:50.201Z,33.50
2019-06-07T11:02:21.839Z,33.40
2019-06-07T11:04:53.301Z,33.50
2019-06-07T11:07:24.903Z,33.60
2019-06-07T11:10:06.322Z,33.60
2019-06-07T11:12:29.576Z,33.50
2019-06-07T11:15:01.052Z,33.00
2019-06-07T11:17:44.202Z,33.20
2019-06-07T11:20:18.654Z,33.20
2019-06-07T11:22:50.373Z,33.30
2019-06-07T11:25:21.759Z,33.40
2019-06-07T11:27:53.371Z,33.50
2019-06-07T11:30:27.331Z,33.50
2019-06-07T11:32:59.069Z,33.40
2019-06-07T11:35:31.487Z,33.10
2019-06-07T11:38:03.536Z,32.70
2019-06-07T11:40:36.162Z,33.00
2019-06-07T11:43:10.813Z,33.00
2019-06-07T11:45:42.481Z,33.40
2019-06-07T11:48:15.388Z,33.40
2019-06-07T11:50:47.553Z,33.10
2019-06-07T11:53:20.148Z,33.20
2019-06-07T11:55:53.244Z,33.40
2019-06-07T11:58:25.732Z,33.30
2019-06-07T12:00:57.297Z,33.10
2019-06-07T12:03:28.953Z,33.40
2019-06-07T12:06:00.870Z,33.40
2019-06-07T12:08:32.720Z,33.30
2019-06-07T12:18:07.200Z,32.70
2019-06-07T12:27:04.305Z,32.20
2019-06-07T12:37:17.369Z,32.70
2019-06-07T12:46:28.140Z,32.40
2019-06-07T12:48:57.639Z,32.20
2019-06-07T12:58:35.394Z,32.40
2019-06-07T13:20:28.696Z,32.50
2019-06-07T14:29:18.252Z,31.90
2019-06-07T15:00:45.508Z,31.70
2019-06-07T15:19:13.553Z,31.30
2019-06-07T15:35:30.118Z,31.70
2019-06-07T16:06:59.391Z,31.60
2019-06-07T16:09:32.295Z,31.40
2019-06-07T16:12:05.061Z,31.20
2019-06-07T16:14:36.980Z,31.60
2019-06-07T16:17:09.731Z,31.50
2019-06-07T16:19:45.105Z,31.30
2019-06-07T16:22:16.218Z,30.90
2019-06-07T16:24:47.742Z,31.10
2019-06-07T16:27:19.252Z,30.70
2019-06-07T16:29:50.821Z,29.80
2019-06-07T16:32:22.354Z,29.40
2019-06-07T16:35:05.313Z,29.00
2019-06-07T16:37:38.166Z,28.90
2019-06-07T16:40:11.058Z,28.80
2019-06-07T16:42:43.013Z,28.70
2019-06-07T16:45:17.046Z,28.90
2019-06-07T16:47:49.768Z,28.90
2019-06-07T16:50:21.392Z,28.50
2019-06-07T16:52:52.917Z,28.30
2019-06-07T16:55:24.304Z,28.10
2019-06-07T16:57:56.741Z,28.00
2019-06-07T17:00:29.209Z,27.90
2019-06-07T17:03:02.016Z,27.80
2019-06-07T17:05:33.508Z,27.60
2019-06-07T17:08:05.184Z,27.50
2019-06-07T17:10:37.960Z,27.40
2019-06-07T17:13:09.691Z,27.40
2019-06-07T17:15:41.070Z,27.40
2019-06-07T17:18:12.607Z,27.20
2019-06-07T17:20:45.354Z,27.10
2019-06-07T17:23:17.887Z,27.00
2019-06-07T17:25:49.770Z,26.80
2019-06-07T17:28:23.158Z,26.80
2019-06-07T17:30:54.619Z,26.80
2019-06-07T17:33:26.157Z,26.70
2019-06-07T17:35:57.630Z,26.70
2019-06-07T17:38:29.487Z,26.70
2019-06-07T17:41:00.904Z,26.50
2019-06-07T17:43:48.571Z,26.30
2019-06-07T17:46:06.577Z,26.30
2019-06-07T17:48:38.151Z,26.20
2019-06-07T17:51:09.533Z,26.20
2019-06-07T17:53:43.881Z,26.10
2019-06-07T17:56:15.469Z,26.00
2019-06-07T17:58:48.306Z,25.90
2019-06-07T18:01:19.856Z,25.80
2019-06-07T18:03:53.205Z,25.70
2019-06-07T18:06:25.179Z,25.60
2019-06-07T18:08:57.113Z,25.60
2019-06-07T18:11:47.884Z,25.50
2019-06-07T18:14:20.101Z,25.40
2019-06-07T18:16:52.735Z,25.30
2019-06-07T18:19:28.042Z,25.30
2019-06-07T18:22:00.548Z,25.10
2019-06-07T18:24:33.210Z,25.10
2019-06-07T18:27:07.184Z,25.00
2019-06-07T18:29:38.419Z,25.00
2019-06-07T18:32:13.381Z,24.90
2019-06-07T18:34:43.220Z,24.90
2019-06-07T18:37:14.905Z,24.80
2019-06-07T18:39:47.021Z,24.80
2019-06-07T18:42:19.793Z,24.70
2019-06-07T18:44:51.354Z,24.60
2019-06-07T18:47:23.954Z,24.60
2019-06-07T18:49:57.917Z,24.70
2019-06-07T18:52:33.045Z,24.70
2019-06-07T18:55:05.386Z,24.50
2019-06-07T18:57:37.018Z,24.40
2019-06-07T19:00:09.797Z,24.20
2019-06-07T19:02:41.397Z,24.10
2019-06-07T19:05:15.101Z,24.00
2019-06-07T19:07:46.497Z,24.00
2019-06-07T19:10:18.973Z,23.90
2019-06-07T19:12:50.943Z,23.90
2019-06-07T19:15:23.439Z,23.80
2019-06-07T19:17:56.106Z,23.70
2019-06-07T19:20:28.099Z,23.60
2019-06-07T19:23:00.547Z,23.60
2019-06-07T19:25:32.337Z,23.60
2019-06-07T19:28:03.701Z,23.50
2019-06-07T19:30:35.219Z,23.30
2019-06-07T19:33:06.703Z,23.30
2019-06-07T19:35:38.272Z,23.10
2019-06-07T19:38:09.927Z,23.20
2019-06-07T19:40:42.562Z,23.10
2019-06-07T19:43:14.012Z,23.10
2019-06-07T19:45:45.790Z,22.90
2019-06-07T19:48:17.179Z,23.00
2019-06-07T19:50:49.167Z,23.00
2019-06-07T19:53:20.670Z,22.90
2019-06-07T19:55:53.338Z,22.70
2019-06-07T19:58:24.922Z,22.70
2019-06-07T20:00:57.568Z,22.50
2019-06-07T20:03:33.071Z,22.50
2019-06-07T20:06:16.409Z,22.40
2019-06-07T20:08:47.981Z,22.40
2019-06-07T20:11:19.617Z,22.30
2019-06-07T20:13:51.278Z,22.20
2019-06-07T20:16:23.089Z,22.30
2019-06-07T20:18:56.071Z,22.20
2019-06-07T20:21:27.926Z,22.10
2019-06-07T20:24:04.879Z,22.10
2019-06-07T20:26:33.258Z,22.10
2019-06-07T20:29:05.697Z,22.10
2019-06-07T20:31:37.566Z,22.00
2019-06-07T20:34:09.240Z,22.10
2019-06-07T20:36:41.314Z,22.00
2019-06-07T20:39:13.261Z,22.00
2019-06-07T20:41:44.932Z,22.10
2019-06-07T20:44:16.396Z,22.10
2019-06-07T20:46:47.904Z,22.00
2019-06-07T20:49:19.434Z,22.00
2019-06-07T20:51:51.079Z,22.00
2019-06-07T20:54:22.558Z,21.90
2019-06-07T20:56:54.156Z,21.80
2019-06-07T20:59:25.902Z,21.80
2019-06-07T21:01:58.675Z,21.80
2019-06-07T21:04:30.439Z,21.80
2019-06-07T21:07:03.261Z,21.80
2019-06-07T21:09:35.840Z,21.80
2019-06-07T21:12:07.903Z,21.80
2019-06-07T21:14:40.001Z,21.80
2019-06-07T21:17:11.499Z,21.80
2019-06-07T21:19:43.038Z,21.80
2019-06-07T21:22:14.426Z,21.80
2019-06-07T21:24:45.993Z,21.70
2019-06-07T21:27:17.458Z,21.60
2019-06-07T21:29:48.907Z,21.50
2019-06-07T21:32:20.309Z,21.50
2019-06-07T21:34:52.258Z,21.50
2019-06-07T21:37:24.194Z,21.50
2019-06-07T21:39:55.747Z,21.50
2019-06-07T21:42:27.182Z,21.50
2019-06-07T21:44:58.705Z,21.50
2019-06-07T21:47:30.605Z,21.50
2019-06-07T21:50:02.571Z,21.40
2019-06-07T21:52:34.238Z,21.30
2019-06-07T21:55:06.946Z,21.10
2019-06-07T21:57:39.277Z,21.10
2019-06-07T22:00:15.672Z,21.10
2019-06-07T22:02:49.188Z,21.10
2019-06-07T22:05:20.743Z,21.10
2019-06-07T22:07:52.368Z,21.00
2019-06-07T22:10:23.958Z,20.90
2019-06-07T22:12:55.513Z,20.90
2019-06-07T22:15:34.032Z,20.80
2019-06-07T22:18:00.256Z,20.70
2019-06-07T22:20:32.749Z,20.50
2019-06-07T22:23:04.499Z,20.40
2019-06-07T22:25:36.755Z,20.30
2019-06-07T22:28:08.245Z,20.40
2019-06-07T22:30:39.865Z,20.50
2019-06-07T22:33:13.238Z,20.50
2019-06-07T22:35:45.362Z,20.50
2019-06-07T22:38:16.808Z,20.40
2019-06-07T22:40:48.378Z,20.40
2019-06-07T22:43:22.298Z,20.30
2019-06-07T22:45:53.821Z,20.20
2019-06-07T22:48:25.339Z,20.20
2019-06-07T22:50:58.419Z,20.10
2019-06-07T22:53:29.934Z,20.00
2019-06-07T22:56:23.458Z,19.90
2019-06-07T22:58:54.946Z,19.80
2019-06-07T23:01:26.496Z,19.80
2019-06-07T23:03:58.013Z,19.80
2019-06-07T23:06:29.473Z,19.80
2019-06-07T23:09:00.885Z,19.70
2019-06-07T23:11:33.983Z,19.70
2019-06-07T23:14:05.658Z,19.70
2019-06-07T23:16:53.997Z,19.60
2019-06-07T23:19:11.853Z,19.60
2019-06-07T23:21:43.706Z,19.70
2019-06-07T23:24:16.413Z,19.60
2019-06-07T23:26:48.020Z,19.50
2019-06-07T23:29:20.684Z,19.50
2019-06-07T23:31:53.530Z,19.40
2019-06-07T23:34:25.562Z,19.40
2019-06-07T23:36:57.004Z,19.50
2019-06-07T23:39:28.471Z,19.50
2019-06-07T23:41:59.996Z,19.50
2019-06-07T23:44:31.588Z,19.40
2019-06-07T23:47:11.154Z,19.40
2019-06-07T23:49:37.029Z,19.30
2019-06-07T23:52:08.602Z,19.40
2019-06-07T23:54:40.419Z,19.40
2019-06-07T23:57:12.151Z,19.40
2019-06-07T23:59:44.727Z,19.50
